createdAt,value
2023-02-08T00:01:09.841Z,48.42
2023-02-08T00:03:38.054Z,48.42
2023-02-08T00:06:07.665Z,48.55
2023-02-08T00:08:36.272Z,48.92
2023-02-08T00:11:04.422Z,49.23
2023-02-08T00:13:32.132Z,48.96
2023-02-08T00:16:00.127Z,49.14
2023-02-08T00:18:29.311Z,49.11
2023-02-08T00:20:57.359Z,48.99
2023-02-08T00:23:25.503Z,48.82
2023-02-08T00:25:53.630Z,48.82
2023-02-08T00:28:21.512Z,48.99
2023-02-08T00:30:49.781Z,49.45
2023-02-08T00:33:17.568Z,49.18
2023-02-08T00:35:46.596Z,49.34
2023-02-08T00:38:14.399Z,49.60
2023-02-08T00:40:42.329Z,49.51
2023-02-08T00:43:10.164Z,49.37
2023-02-08T00:45:37.763Z,49.67
2023-02-08T00:48:05.656Z,49.93
2023-02-08T00:50:33.327Z,50.55
2023-02-08T00:53:02.350Z,50.64
2023-02-08T00:55:30.059Z,50.60
2023-02-08T00:57:57.908Z,50.70
2023-02-08T01:00:25.713Z,50.57
2023-02-08T01:02:53.437Z,50.84
2023-02-08T01:05:21.067Z,50.43
2023-02-08T01:07:48.797Z,50.32
2023-02-08T01:10:17.839Z,50.12
2023-02-08T01:12:45.415Z,50.21
2023-02-08T01:15:13.035Z,50.31
2023-02-08T01:17:40.676Z,50.17
2023-02-08T01:20:09.148Z,50.32
2023-02-08T01:22:36.809Z,50.05
2023-02-08T01:25:04.573Z,50.09
2023-02-08T01:27:33.564Z,49.78
2023-02-08T01:30:01.244Z,49.80
2023-02-08T01:32:28.870Z,49.85
2023-02-08T01:34:56.593Z,49.77
2023-02-08T01:37:24.322Z,49.96
2023-02-08T01:39:52.016Z,50.00
2023-02-08T01:42:20.856Z,50.04
2023-02-08T01:45:30.477Z,49.84
2023-02-08T01:48:05.278Z,49.96
2023-02-08T01:50:40.826Z,49.85
2023-02-08T01:53:09.029Z,49.94
2023-02-08T01:55:42.284Z,50.12
2023-02-08T01:58:12.462Z,49.99
2023-02-08T02:00:41.856Z,50.10
2023-02-08T02:03:09.733Z,50.57
2023-02-08T02:05:42.320Z,50.47
2023-02-08T02:08:11.070Z,50.32
2023-02-08T02:10:40.521Z,50.67
2023-02-08T02:13:10.646Z,50.50
2023-02-08T02:15:38.533Z,50.46
2023-02-08T02:18:09.503Z,50.60
2023-02-08T02:20:53.549Z,50.77
2023-02-08T02:23:49.706Z,50.61
2023-02-08T02:26:47.299Z,50.71
2023-02-08T02:30:00.634Z,50.95
2023-02-08T02:32:45.192Z,50.96
2023-02-08T02:35:19.962Z,50.69
2023-02-08T02:37:57.301Z,50.58
2023-02-08T02:40:35.658Z,50.28
2023-02-08T02:43:30.506Z,50.31
2023-02-08T02:46:05.904Z,50.46
2023-02-08T02:48:43.247Z,50.27
2023-02-08T02:51:15.398Z,50.48
2023-02-08T02:53:49.769Z,50.42
2023-02-08T02:56:22.865Z,50.13
2023-02-08T02:58:51.835Z,50.50
2023-02-08T03:01:26.012Z,50.54
2023-02-08T03:03:55.800Z,50.32
2023-02-08T03:06:42.763Z,50.46
2023-02-08T03:09:26.687Z,50.68
2023-02-08T03:12:01.612Z,50.61
2023-02-08T03:14:37.187Z,50.44
2023-02-08T03:17:33.290Z,50.64
2023-02-08T03:20:09.184Z,50.64
2023-02-08T03:22:46.189Z,50.42
2023-02-08T03:25:21.804Z,50.61
2023-02-08T03:27:57.793Z,50.67
2023-02-08T03:30:31.552Z,50.74
2023-02-08T03:33:03.890Z,50.55
2023-02-08T03:35:37.923Z,50.66
2023-02-08T03:38:08.387Z,50.64
2023-02-08T03:40:39.890Z,50.67
2023-02-08T03:43:12.864Z,50.64
2023-02-08T03:45:44.415Z,50.72
2023-02-08T03:48:14.902Z,50.90
2023-02-08T03:50:47.052Z,50.92
2023-02-08T03:53:18.393Z,50.72
2023-02-08T03:55:49.228Z,50.84
2023-02-08T03:58:22.813Z,50.92
2023-02-08T04:00:57.029Z,51.05
2023-02-08T04:03:27.941Z,51.02
2023-02-08T04:05:57.168Z,50.93
2023-02-08T04:08:25.410Z,51.15
2023-02-08T04:10:53.519Z,51.07
2023-02-08T04:13:21.161Z,51.01
2023-02-08T04:15:48.837Z,51.25
2023-02-08T04:18:16.450Z,51.17
2023-02-08T04:20:44.196Z,51.20
2023-02-08T04:23:13.129Z,51.06
2023-02-08T04:25:40.810Z,51.28
2023-02-08T04:28:08.470Z,51.51
2023-02-08T04:30:36.178Z,51.37
2023-02-08T04:33:03.927Z,51.15
2023-02-08T04:35:31.627Z,51.37
2023-02-08T04:38:00.119Z,51.45
2023-02-08T04:40:29.386Z,51.56
2023-02-08T04:42:57.069Z,51.56
2023-02-08T04:45:25.155Z,51.71
2023-02-08T04:47:52.738Z,51.58
2023-02-08T04:50:20.550Z,51.72
2023-02-08T04:52:48.182Z,51.89
2023-02-08T04:55:15.943Z,51.74
2023-02-08T04:57:44.941Z,51.53
2023-02-08T05:00:13.925Z,51.63
2023-02-08T05:02:41.552Z,51.62
2023-02-08T05:05:09.624Z,51.71
2023-02-08T05:07:39.736Z,51.78
2023-02-08T05:10:08.096Z,51.55
2023-02-08T05:12:35.754Z,51.85
2023-02-08T05:15:06.326Z,51.93
2023-02-08T05:17:34.023Z,52.04
2023-02-08T05:20:01.723Z,51.83
2023-02-08T05:22:29.368Z,51.91
2023-02-08T05:24:57.026Z,52.11
2023-02-08T05:27:24.842Z,52.40
2023-02-08T05:29:52.501Z,52.16
2023-02-08T05:32:21.529Z,52.47
2023-02-08T05:34:49.230Z,52.48
2023-02-08T05:37:18.027Z,52.24
2023-02-08T05:39:45.760Z,52.12
2023-02-08T05:42:13.461Z,52.28
2023-02-08T05:44:41.187Z,52.26
2023-02-08T05:47:08.846Z,52.62
2023-02-08T05:49:37.856Z,52.41
2023-02-08T05:52:05.916Z,52.33
2023-02-08T05:54:33.655Z,52.03
2023-02-08T05:57:01.339Z,52.01
2023-02-08T05:59:29.188Z,52.18
2023-02-08T06:01:56.778Z,52.14
2023-02-08T06:04:24.495Z,52.09
2023-02-08T06:06:53.495Z,52.30
2023-02-08T06:09:21.300Z,52.01
2023-02-08T06:11:48.964Z,52.27
2023-02-08T06:14:16.650Z,52.34
2023-02-08T06:16:44.263Z,51.99
2023-02-08T06:19:13.360Z,52.16
2023-02-08T06:21:43.286Z,52.43
2023-02-08T06:24:13.728Z,52.38
2023-02-08T06:26:41.521Z,52.30
2023-02-08T06:29:09.207Z,52.18
2023-02-08T06:31:37.296Z,52.22
2023-02-08T06:34:04.978Z,52.12
2023-02-08T06:36:32.777Z,52.05
2023-02-08T06:39:00.830Z,52.38
2023-02-08T06:41:29.893Z,52.44
2023-02-08T06:43:59.314Z,52.59
2023-02-08T06:46:26.992Z,52.35
2023-02-08T06:48:55.351Z,52.64
2023-02-08T06:51:23.012Z,52.60
2023-02-08T06:54:04.676Z,52.80
2023-02-08T06:56:33.769Z,52.51
2023-02-08T06:59:01.480Z,52.57
2023-02-08T07:01:29.561Z,52.25
2023-02-08T07:03:57.399Z,52.25
2023-02-08T07:06:25.120Z,52.33
2023-02-08T07:08:52.960Z,52.42
2023-02-08T07:11:23.966Z,52.19
2023-02-08T07:13:54.574Z,52.26
2023-02-08T07:16:22.816Z,52.14
2023-02-08T07:18:50.539Z,52.37
2023-02-08T07:21:18.221Z,52.10
2023-02-08T07:23:45.919Z,52.17
2023-02-08T07:26:15.384Z,52.09
2023-02-08T07:28:43.481Z,51.86
2023-02-08T07:31:14.666Z,51.94
2023-02-08T07:33:42.712Z,51.82
2023-02-08T07:36:10.987Z,51.76
2023-02-08T07:38:39.960Z,51.98
2023-02-08T07:41:09.836Z,51.87
2023-02-08T07:43:38.555Z,52.24
2023-02-08T07:46:08.484Z,52.63
2023-02-08T07:48:40.269Z,52.57
2023-02-08T07:51:08.685Z,53.05
2023-02-08T07:53:36.852Z,52.74
2023-02-08T07:56:04.889Z,52.76
2023-02-08T07:58:32.629Z,52.62
2023-02-08T08:01:07.026Z,52.28
2023-02-08T08:03:45.209Z,52.13
2023-02-08T08:06:13.013Z,52.01
2023-02-08T08:08:40.895Z,52.18
2023-02-08T08:11:08.572Z,52.06
2023-02-08T08:13:36.271Z,51.72
2023-02-08T08:16:04.086Z,51.68
2023-02-08T08:18:31.842Z,51.90
2023-02-08T08:21:01.026Z,51.86
2023-02-08T08:23:29.072Z,52.04
2023-02-08T08:25:56.910Z,51.90
2023-02-08T08:28:24.806Z,52.33
2023-02-08T08:30:52.619Z,52.25
2023-02-08T08:33:21.081Z,52.23
2023-02-08T08:35:48.730Z,52.22
2023-02-08T08:38:17.740Z,52.71
2023-02-08T08:40:45.594Z,52.68
2023-02-08T08:43:13.307Z,52.20
2023-02-08T08:45:40.957Z,51.92
2023-02-08T08:48:08.633Z,51.81
2023-02-08T08:50:36.312Z,52.12
2023-02-08T08:53:03.978Z,52.15
2023-02-08T08:55:32.995Z,51.76
2023-02-08T08:58:00.684Z,51.02
2023-02-08T09:00:28.365Z,50.37
2023-02-08T09:02:56.107Z,50.32
2023-02-08T09:05:23.803Z,50.37
2023-02-08T09:07:51.541Z,50.75
2023-02-08T09:10:19.675Z,50.83
2023-02-08T09:12:48.776Z,50.48
2023-02-08T09:15:22.147Z,50.42
2023-02-08T09:17:49.928Z,49.31
2023-02-08T09:20:17.995Z,48.10
2023-02-08T09:22:45.672Z,44.03
2023-02-08T09:25:13.408Z,40.52
2023-02-08T09:27:41.050Z,38.04
2023-02-08T09:30:11.721Z,34.82
2023-02-08T09:32:39.996Z,32.14
2023-02-08T09:35:08.793Z,28.74
2023-02-08T09:37:36.502Z,26.58
2023-02-08T09:40:04.604Z,25.69
2023-02-08T09:42:41.076Z,23.77
2023-02-08T09:45:37.722Z,22.49
2023-02-08T09:48:17.532Z,22.63
2023-02-08T09:50:49.689Z,22.41
2023-02-08T09:53:21.208Z,21.75
2023-02-08T09:55:52.400Z,21.61
2023-02-08T09:58:24.921Z,22.73
2023-02-08T10:00:55.468Z,23.40
2023-02-08T10:03:30.538Z,22.52
2023-02-08T10:05:58.351Z,21.61
2023-02-08T10:08:35.261Z,21.28
2023-02-08T10:11:12.178Z,21.95
2023-02-08T10:13:57.191Z,23.89
2023-02-08T10:16:42.542Z,24.74
2023-02-08T10:19:20.579Z,23.70
2023-02-08T10:22:00.950Z,23.56
2023-02-08T10:24:43.108Z,24.93
2023-02-08T10:27:17.128Z,26.57
2023-02-08T10:30:09.548Z,26.98
2023-02-08T10:32:51.048Z,23.98
2023-02-08T10:35:26.507Z,22.70
2023-02-08T10:37:56.568Z,21.65
2023-02-08T10:40:36.704Z,19.91
2023-02-08T10:43:15.749Z,17.69
2023-02-08T10:45:51.365Z,15.80
2023-02-08T10:48:32.712Z,13.96
2023-02-08T10:51:00.516Z,12.87
2023-02-08T10:53:28.292Z,13.32
2023-02-08T10:55:55.959Z,15.23
2023-02-08T10:58:27.135Z,17.65
2023-02-08T11:00:57.564Z,20.34
2023-02-08T11:03:29.199Z,21.46
2023-02-08T11:05:57.647Z,23.52
2023-02-08T11:08:27.691Z,24.31
2023-02-08T11:11:00.922Z,23.85
2023-02-08T11:13:36.553Z,22.30
2023-02-08T11:16:07.342Z,23.09
2023-02-08T11:18:39.282Z,23.50
2023-02-08T11:21:11.880Z,24.59
2023-02-08T11:23:42.690Z,23.79
2023-02-08T11:26:19.346Z,23.95
2023-02-08T11:29:00.860Z,23.97
2023-02-08T11:31:29.578Z,23.31
2023-02-08T11:34:04.102Z,21.79
2023-02-08T11:36:34.324Z,21.01
2023-02-08T11:39:03.698Z,20.64
2023-02-08T11:41:31.744Z,19.41
2023-02-08T11:44:03.481Z,19.82
2023-02-08T11:46:35.060Z,19.94
2023-02-08T11:49:04.896Z,21.24
2023-02-08T11:51:35.564Z,21.72
2023-02-08T11:54:06.816Z,22.38
2023-02-08T11:56:35.550Z,21.00
2023-02-08T11:59:07.757Z,19.53
2023-02-08T12:01:38.022Z,18.80
2023-02-08T12:04:11.006Z,17.93
2023-02-08T12:07:13.318Z,18.14
2023-02-08T12:10:00.398Z,17.14
2023-02-08T12:12:39.678Z,17.89
2023-02-08T12:15:17.016Z,17.97
2023-02-08T12:18:07.230Z,19.14
2023-02-08T12:20:44.026Z,21.26
2023-02-08T12:23:48.931Z,22.73
2023-02-08T12:26:26.673Z,23.35
2023-02-08T12:29:08.220Z,23.30
2023-02-08T12:31:53.005Z,24.24
2023-02-08T12:34:28.505Z,23.91
2023-02-08T12:37:42.561Z,24.02
2023-02-08T12:40:41.556Z,23.67
2023-02-08T12:43:20.306Z,25.36
2023-02-08T12:46:30.166Z,22.83
2023-02-08T12:49:32.776Z,24.84
2023-02-08T12:52:12.489Z,24.72
2023-02-08T12:54:45.986Z,26.80
2023-02-08T12:57:17.029Z,27.66
2023-02-08T12:59:48.253Z,25.99
2023-02-08T13:02:21.053Z,25.98
2023-02-08T13:04:53.907Z,26.16
2023-02-08T13:07:25.152Z,26.34
2023-02-08T13:10:02.986Z,26.07
2023-02-08T13:12:34.606Z,26.49
2023-02-08T13:15:11.868Z,26.42
2023-02-08T13:17:48.075Z,26.51
2023-02-08T13:20:31.078Z,26.50
2023-02-08T13:23:02.786Z,25.67
2023-02-08T13:25:35.573Z,25.49
2023-02-08T13:28:04.505Z,25.93
2023-02-08T13:30:33.714Z,27.00
2023-02-08T13:33:08.497Z,27.71
2023-02-08T13:35:37.141Z,28.04
2023-02-08T13:38:07.738Z,28.55
2023-02-08T13:40:39.237Z,29.96
2023-02-08T13:43:10.071Z,29.73
2023-02-08T13:45:43.347Z,30.49
2023-02-08T13:48:15.401Z,31.57
2023-02-08T13:50:48.772Z,32.15
2023-02-08T13:53:17.786Z,32.00
2023-02-08T13:55:56.770Z,31.05
2023-02-08T13:58:47.748Z,32.30
2023-02-08T14:01:19.283Z,31.94
2023-02-08T14:04:16.738Z,33.53
2023-02-08T14:06:49.448Z,34.13
2023-02-08T14:09:23.142Z,34.64
2023-02-08T14:11:57.316Z,34.79
2023-02-08T14:14:28.247Z,35.76
2023-02-08T14:17:21.578Z,35.38
2023-02-08T14:19:59.020Z,35.43
2023-02-08T14:22:29.823Z,34.43
2023-02-08T14:25:03.592Z,36.47
2023-02-08T14:27:37.818Z,35.30
2023-02-08T14:30:08.603Z,34.05
2023-02-08T14:32:39.252Z,34.94
2023-02-08T14:35:10.326Z,36.22
2023-02-08T14:37:38.742Z,35.85
2023-02-08T14:40:44.061Z,37.06
2023-02-08T14:43:32.636Z,36.18
2023-02-08T14:46:42.081Z,37.59
2023-02-08T14:49:12.579Z,38.02
2023-02-08T14:51:43.969Z,37.32
2023-02-08T14:54:22.328Z,37.32
2023-02-08T14:56:59.136Z,37.46
2023-02-08T14:59:32.798Z,38.01
2023-02-08T15:02:03.285Z,38.31
2023-02-08T15:04:31.450Z,37.09
2023-02-08T15:07:30.834Z,37.36
2023-02-08T15:10:03.906Z,37.20
2023-02-08T15:12:35.048Z,38.04
2023-02-08T15:15:06.469Z,37.14
2023-02-08T15:17:39.798Z,37.46
2023-02-08T15:20:17.205Z,37.96
2023-02-08T15:22:45.025Z,38.25
2023-02-08T15:25:23.069Z,37.62
2023-02-08T15:27:52.748Z,38.07
2023-02-08T15:30:30.937Z,38.20
2023-02-08T15:32:59.249Z,38.42
2023-02-08T15:35:27.859Z,37.79
2023-02-08T15:37:56.874Z,37.80
2023-02-08T15:40:27.696Z,38.04
2023-02-08T15:42:55.936Z,38.04
2023-02-08T15:45:30.563Z,39.54
2023-02-08T15:47:59.805Z,38.14
2023-02-08T15:50:29.025Z,38.36
2023-02-08T15:53:00.203Z,38.81
2023-02-08T15:55:32.190Z,39.07
2023-02-08T15:58:04.313Z,39.20
2023-02-08T16:00:36.503Z,38.59
2023-02-08T16:03:08.650Z,38.79
2023-02-08T16:05:37.511Z,38.39
2023-02-08T16:08:06.046Z,38.92
2023-02-08T16:10:36.830Z,39.20
2023-02-08T16:13:07.557Z,39.24
2023-02-08T16:15:42.900Z,39.25
2023-02-08T16:18:34.330Z,39.46
2023-02-08T16:21:03.752Z,39.28
2023-02-08T16:23:33.062Z,39.91
2023-02-08T16:26:13.517Z,40.25
2023-02-08T16:28:41.319Z,39.86
2023-02-08T16:31:13.033Z,39.60
2023-02-08T16:33:41.092Z,39.87
2023-02-08T16:36:08.718Z,39.65
2023-02-08T16:38:36.381Z,40.24
2023-02-08T16:41:13.025Z,40.40
2023-02-08T16:43:43.810Z,40.16
2023-02-08T16:46:23.788Z,40.67
2023-02-08T16:48:53.488Z,40.87
2023-02-08T16:51:24.650Z,40.30
2023-02-08T16:53:54.988Z,40.08
2023-02-08T16:56:23.416Z,39.95
2023-02-08T16:58:51.205Z,40.17
2023-02-08T17:01:23.231Z,40.43
2023-02-08T17:03:52.854Z,40.43
2023-02-08T17:06:31.699Z,40.67
2023-02-08T17:09:00.542Z,40.63
2023-02-08T17:11:29.004Z,40.70
2023-02-08T17:13:58.266Z,40.84
2023-02-08T17:16:29.294Z,40.43
2023-02-08T17:18:57.390Z,40.36
2023-02-08T17:21:25.542Z,40.59
2023-02-08T17:23:53.199Z,41.38
2023-02-08T17:26:27.350Z,41.14
2023-02-08T17:28:55.717Z,41.44
2023-02-08T17:31:24.142Z,41.74
2023-02-08T17:33:53.236Z,41.80
2023-02-08T17:36:20.881Z,41.50
2023-02-08T17:38:48.637Z,42.07
2023-02-08T17:41:18.544Z,41.84
2023-02-08T17:43:46.796Z,41.87
2023-02-08T17:46:18.559Z,42.36
2023-02-08T17:48:48.251Z,42.15
2023-02-08T17:51:20.603Z,42.07
2023-02-08T17:53:48.568Z,41.93
2023-02-08T17:56:18.353Z,42.70
2023-02-08T17:58:48.960Z,41.93
2023-02-08T18:01:21.518Z,42.31
2023-02-08T18:03:51.160Z,41.98
2023-02-08T18:06:20.867Z,42.81
2023-02-08T18:08:49.083Z,42.60
2023-02-08T18:11:20.181Z,42.60
2023-02-08T18:13:49.509Z,42.67
2023-02-08T18:16:19.063Z,42.52
2023-02-08T18:18:46.764Z,42.56
2023-02-08T18:21:16.680Z,43.22
2023-02-08T18:23:46.454Z,43.93
2023-02-08T18:26:17.065Z,43.87
2023-02-08T18:28:44.995Z,44.00
2023-02-08T18:31:15.273Z,43.06
2023-02-08T18:33:44.376Z,42.92
2023-02-08T18:36:12.864Z,43.02
2023-02-08T18:38:41.449Z,43.11
2023-02-08T18:41:11.523Z,43.04
2023-02-08T18:43:40.684Z,43.39
2023-02-08T18:46:10.683Z,43.44
2023-02-08T18:48:39.179Z,43.89
2023-02-08T18:51:08.270Z,43.31
2023-02-08T18:53:38.257Z,43.48
2023-02-08T18:56:08.382Z,43.32
2023-02-08T18:58:37.673Z,43.57
2023-02-08T19:01:07.310Z,43.73
2023-02-08T19:03:36.086Z,43.84
2023-02-08T19:06:06.222Z,44.01
2023-02-08T19:08:36.322Z,44.34
2023-02-08T19:11:04.499Z,44.57
2023-02-08T19:13:32.489Z,44.66
2023-02-08T19:16:01.584Z,44.92
2023-02-08T19:18:29.222Z,45.12
2023-02-08T19:20:56.837Z,44.86
2023-02-08T19:23:24.571Z,45.68
2023-02-08T19:25:52.232Z,45.54
2023-02-08T19:28:19.927Z,44.66
2023-02-08T19:30:47.636Z,44.35
2023-02-08T19:33:16.637Z,45.04
2023-02-08T19:35:44.608Z,44.50
2023-02-08T19:38:12.649Z,44.10
2023-02-08T19:40:40.345Z,44.41
2023-02-08T19:43:08.025Z,44.46
2023-02-08T19:45:36.067Z,44.86
2023-02-08T19:48:03.722Z,44.32
2023-02-08T19:50:32.762Z,44.41
2023-02-08T19:53:00.428Z,45.08
2023-02-08T19:55:28.024Z,45.35
2023-02-08T19:57:55.645Z,45.75
2023-02-08T20:00:24.406Z,45.71
2023-02-08T20:02:52.247Z,44.87
2023-02-08T20:05:19.931Z,45.15
2023-02-08T20:07:48.924Z,45.21
2023-02-08T20:10:16.900Z,45.04
2023-02-08T20:12:44.506Z,45.08
2023-02-08T20:15:12.161Z,45.70
2023-02-08T20:17:39.792Z,45.06
2023-02-08T20:20:09.032Z,45.28
2023-02-08T20:22:36.679Z,45.67
2023-02-08T20:25:06.194Z,46.08
2023-02-08T20:27:33.810Z,46.05
2023-02-08T20:30:01.540Z,46.13
2023-02-08T20:32:29.129Z,45.90
2023-02-08T20:34:59.876Z,45.89
2023-02-08T20:37:27.609Z,45.92
2023-02-08T20:39:55.388Z,46.33
2023-02-08T20:42:24.365Z,46.38
2023-02-08T20:44:53.425Z,46.58
2023-02-08T20:47:21.937Z,46.55
2023-02-08T20:49:49.997Z,46.55
2023-02-08T20:52:18.623Z,46.15
2023-02-08T20:54:46.794Z,45.91
2023-02-08T20:57:15.224Z,45.82
2023-02-08T20:59:44.417Z,45.82
2023-02-08T21:02:17.750Z,45.81
2023-02-08T21:04:45.551Z,45.94
2023-02-08T21:07:13.172Z,46.28
2023-02-08T21:09:40.788Z,46.48
2023-02-08T21:12:08.785Z,46.23
2023-02-08T21:14:36.421Z,46.12
2023-02-08T21:17:05.456Z,46.01
2023-02-08T21:19:33.283Z,45.94
2023-02-08T21:22:02.592Z,45.64
2023-02-08T21:24:30.818Z,45.55
2023-02-08T21:26:58.964Z,45.42
2023-02-08T21:29:29.057Z,45.03
2023-02-08T21:31:57.814Z,45.06
2023-02-08T21:34:26.906Z,45.57
2023-02-08T21:36:54.671Z,45.48
2023-02-08T21:39:23.226Z,45.53
2023-02-08T21:41:52.710Z,45.46
2023-02-08T21:44:20.584Z,45.07
2023-02-08T21:46:48.160Z,44.77
2023-02-08T21:49:33.421Z,44.85
2023-02-08T21:52:20.393Z,45.04
2023-02-08T21:54:53.159Z,45.17
2023-02-08T21:57:22.761Z,45.43
2023-02-08T21:59:53.751Z,45.88
2023-02-08T22:02:25.429Z,45.82
2023-02-08T22:04:53.833Z,46.05
2023-02-08T22:07:23.177Z,46.63
2023-02-08T22:09:51.252Z,47.34
2023-02-08T22:12:21.653Z,47.19
2023-02-08T22:14:50.175Z,46.70
2023-02-08T22:17:18.318Z,46.74
2023-02-08T22:19:46.029Z,47.32
2023-02-08T22:22:13.702Z,47.17
2023-02-08T22:24:42.773Z,46.94
2023-02-08T22:27:11.719Z,46.91
2023-02-08T22:29:39.676Z,47.01
2023-02-08T22:32:09.752Z,46.96
2023-02-08T22:34:38.291Z,47.33
2023-02-08T22:37:06.184Z,47.71
2023-02-08T22:39:35.652Z,47.68
2023-02-08T22:42:08.454Z,47.86
2023-02-08T22:44:36.374Z,47.41
2023-02-08T22:47:04.605Z,48.03
2023-02-08T22:49:32.266Z,48.20
2023-02-08T22:52:00.018Z,47.91
2023-02-08T22:54:27.996Z,47.27
2023-02-08T22:56:55.715Z,46.54
2023-02-08T22:59:24.839Z,46.42
2023-02-08T23:01:52.628Z,46.61
2023-02-08T23:04:20.718Z,46.29
2023-02-08T23:06:48.964Z,46.16
2023-02-08T23:09:16.731Z,45.96
2023-02-08T23:11:44.471Z,45.75
2023-02-08T23:14:12.536Z,45.45
2023-02-08T23:16:41.473Z,45.37
2023-02-08T23:19:09.244Z,45.89
2023-02-08T23:21:38.385Z,46.54
2023-02-08T23:24:07.378Z,47.01
2023-02-08T23:26:35.063Z,46.84
2023-02-08T23:29:02.872Z,46.72
2023-02-08T23:31:30.637Z,47.12
2023-02-08T23:34:00.706Z,47.20
2023-02-08T23:36:28.680Z,47.50
2023-02-08T23:38:56.575Z,47.82
2023-02-08T23:41:24.972Z,47.82
2023-02-08T23:43:53.372Z,48.30
2023-02-08T23:46:26.999Z,48.81
2023-02-08T23:48:55.128Z,48.50
2023-02-08T23:51:26.162Z,49.00
2023-02-08T23:53:55.272Z,48.90
2023-02-08T23:56:25.133Z,49.23
2023-02-08T23:58:55.074Z,48.97
